sensor_id;sensor_type;location;lat;lon;timestamp;P1;durP1;ratioP1;P2;durP2;ratioP2
12433;SDS011;6281;49.038;8.372;2022-11-20T00:00:18;14.50;;;10.93;;
12433;SDS011;6281;49.038;8.372;2022-11-20T00:02:45;13.83;;;10.63;;
12433;SDS011;6281;49.038;8.372;2022-11-20T00:05:12;15.77;;;11.43;;
12433;SDS011;6281;49.038;8.372;2022-11-20T00:07:39;16.40;;;11.27;;
12433;SDS011;6281;49.038;8.372;2022-11-20T00:10:07;15.73;;;10.57;;
12433;SDS011;6281;49.038;8.372;2022-11-20T00:12:39;16.00;;;11.30;;
12433;SDS011;6281;49.038;8.372;2022-11-20T00:15:06;15.43;;;10.23;;
12433;SDS011;6281;49.038;8.372;2022-11-20T00:17:35;14.10;;;9.77;;
12433;SDS011;6281;49.038;8.372;2022-11-20T00:20:02;15.60;;;11.30;;
12433;SDS011;6281;49.038;8.372;2022-11-20T00:22:29;16.27;;;10.33;;
12433;SDS011;6281;49.038;8.372;2022-11-20T00:24:56;17.70;;;10.90;;
12433;SDS011;6281;49.038;8.372;2022-11-20T00:27:23;17.43;;;11.23;;
12433;SDS011;6281;49.038;8.372;2022-11-20T00:29:51;16.50;;;10.37;;
12433;SDS011;6281;49.038;8.372;2022-11-20T00:32:18;16.27;;;10.10;;
12433;SDS011;6281;49.038;8.372;2022-11-20T00:34:45;15.97;;;10.50;;
12433;SDS011;6281;49.038;8.372;2022-11-20T00:37:12;14.03;;;10.13;;
12433;SDS011;6281;49.038;8.372;2022-11-20T00:39:39;16.00;;;10.90;;
12433;SDS011;6281;49.038;8.372;2022-11-20T00:42:06;16.20;;;11.00;;
12433;SDS011;6281;49.038;8.372;2022-11-20T00:44:33;20.47;;;11.63;;
12433;SDS011;6281;49.038;8.372;2022-11-20T00:47:01;14.03;;;10.40;;
12433;SDS011;6281;49.038;8.372;2022-11-20T00:49:31;15.43;;;10.73;;
12433;SDS011;6281;49.038;8.372;2022-11-20T00:51:58;14.57;;;10.03;;
12433;SDS011;6281;49.038;8.372;2022-11-20T00:54:25;15.47;;;10.20;;
12433;SDS011;6281;49.038;8.372;2022-11-20T00:56:52;16.77;;;10.90;;
12433;SDS011;6281;49.038;8.372;2022-11-20T00:59:20;14.63;;;10.53;;
12433;SDS011;6281;49.038;8.372;2022-11-20T01:01:47;15.07;;;10.33;;
12433;SDS011;6281;49.038;8.372;2022-11-20T01:04:16;15.33;;;10.20;;
12433;SDS011;6281;49.038;8.372;2022-11-20T01:06:43;15.03;;;10.70;;
12433;SDS011;6281;49.038;8.372;2022-11-20T01:09:10;16.60;;;11.27;;
12433;SDS011;6281;49.038;8.372;2022-11-20T01:11:39;13.50;;;9.67;;
12433;SDS011;6281;49.038;8.372;2022-11-20T01:14:09;13.40;;;9.90;;
12433;SDS011;6281;49.038;8.372;2022-11-20T01:16:38;15.50;;;10.20;;
12433;SDS011;6281;49.038;8.372;2022-11-20T01:19:09;15.13;;;10.70;;
12433;SDS011;6281;49.038;8.372;2022-11-20T01:21:39;14.63;;;9.70;;
12433;SDS011;6281;49.038;8.372;2022-11-20T01:24:08;12.67;;;9.43;;
12433;SDS011;6281;49.038;8.372;2022-11-20T01:26:37;13.40;;;9.77;;
12433;SDS011;6281;49.038;8.372;2022-11-20T01:29:06;13.27;;;9.33;;
12433;SDS011;6281;49.038;8.372;2022-11-20T01:31:35;14.33;;;10.27;;
12433;SDS011;6281;49.038;8.372;2022-11-20T01:34:04;16.63;;;9.43;;
12433;SDS011;6281;49.038;8.372;2022-11-20T01:36:32;13.17;;;10.03;;
12433;SDS011;6281;49.038;8.372;2022-11-20T01:39:03;13.60;;;10.10;;
12433;SDS011;6281;49.038;8.372;2022-11-20T01:41:32;13.60;;;9.73;;
12433;SDS011;6281;49.038;8.372;2022-11-20T01:44:18;13.47;;;9.07;;
12433;SDS011;6281;49.038;8.372;2022-11-20T01:46:49;14.17;;;10.40;;
12433;SDS011;6281;49.038;8.372;2022-11-20T01:49:21;12.17;;;9.07;;
12433;SDS011;6281;49.038;8.372;2022-11-20T01:51:52;14.07;;;9.57;;
12433;SDS011;6281;49.038;8.372;2022-11-20T01:54:23;15.17;;;10.17;;
12433;SDS011;6281;49.038;8.372;2022-11-20T01:56:54;13.60;;;9.53;;
12433;SDS011;6281;49.038;8.372;2022-11-20T01:59:25;11.57;;;8.00;;
12433;SDS011;6281;49.038;8.372;2022-11-20T02:01:54;13.70;;;8.87;;
12433;SDS011;6281;49.038;8.372;2022-11-20T02:04:21;13.37;;;8.30;;
12433;SDS011;6281;49.038;8.372;2022-11-20T02:06:50;13.13;;;8.50;;
12433;SDS011;6281;49.038;8.372;2022-11-20T02:09:24;12.20;;;8.97;;
12433;SDS011;6281;49.038;8.372;2022-11-20T02:11:51;12.57;;;8.10;;
12433;SDS011;6281;49.038;8.372;2022-11-20T02:14:18;12.37;;;7.63;;
12433;SDS011;6281;49.038;8.372;2022-11-20T02:16:44;12.57;;;8.20;;
12433;SDS011;6281;49.038;8.372;2022-11-20T02:19:15;12.67;;;8.53;;
12433;SDS011;6281;49.038;8.372;2022-11-20T02:21:49;14.13;;;8.40;;
12433;SDS011;6281;49.038;8.372;2022-11-20T02:24:24;8.97;;;6.53;;
12433;SDS011;6281;49.038;8.372;2022-11-20T02:26:52;10.20;;;7.77;;
12433;SDS011;6281;49.038;8.372;2022-11-20T02:29:23;10.37;;;7.67;;
12433;SDS011;6281;49.038;8.372;2022-11-20T02:31:52;13.83;;;7.77;;
12433;SDS011;6281;49.038;8.372;2022-11-20T02:34:22;12.03;;;8.57;;
12433;SDS011;6281;49.038;8.372;2022-11-20T02:36:49;9.53;;;7.03;;
12433;SDS011;6281;49.038;8.372;2022-11-20T02:39:16;10.37;;;7.97;;
12433;SDS011;6281;49.038;8.372;2022-11-20T02:41:46;11.07;;;7.37;;
12433;SDS011;6281;49.038;8.372;2022-11-20T02:44:13;10.17;;;7.43;;
12433;SDS011;6281;49.038;8.372;2022-11-20T02:46:40;10.97;;;7.47;;
12433;SDS011;6281;49.038;8.372;2022-11-20T02:49:07;10.80;;;7.10;;
12433;SDS011;6281;49.038;8.372;2022-11-20T02:51:34;8.43;;;6.83;;
12433;SDS011;6281;49.038;8.372;2022-11-20T02:54:01;11.33;;;6.37;;
12433;SDS011;6281;49.038;8.372;2022-11-20T02:56:28;7.80;;;5.97;;
12433;SDS011;6281;49.038;8.372;2022-11-20T02:58:57;6.53;;;4.43;;
12433;SDS011;6281;49.038;8.372;2022-11-20T03:01:24;7.50;;;4.77;;
12433;SDS011;6281;49.038;8.372;2022-11-20T03:03:50;6.93;;;4.90;;
12433;SDS011;6281;49.038;8.372;2022-11-20T03:06:19;10.67;;;5.93;;
12433;SDS011;6281;49.038;8.372;2022-11-20T03:08:46;11.07;;;5.80;;
12433;SDS011;6281;49.038;8.372;2022-11-20T03:11:13;9.53;;;7.13;;
12433;SDS011;6281;49.038;8.372;2022-11-20T03:13:40;9.10;;;6.30;;
12433;SDS011;6281;49.038;8.372;2022-11-20T03:16:10;12.17;;;7.03;;
12433;SDS011;6281;49.038;8.372;2022-11-20T03:18:38;8.83;;;6.20;;
12433;SDS011;6281;49.038;8.372;2022-11-20T03:21:05;9.57;;;6.27;;
12433;SDS011;6281;49.038;8.372;2022-11-20T03:23:33;11.27;;;6.77;;
12433;SDS011;6281;49.038;8.372;2022-11-20T03:26:11;7.83;;;5.87;;
12433;SDS011;6281;49.038;8.372;2022-11-20T03:28:40;7.70;;;6.20;;
12433;SDS011;6281;49.038;8.372;2022-11-20T03:31:09;9.67;;;6.37;;
12433;SDS011;6281;49.038;8.372;2022-11-20T03:33:38;9.50;;;6.77;;
12433;SDS011;6281;49.038;8.372;2022-11-20T03:36:05;9.47;;;5.77;;
12433;SDS011;6281;49.038;8.372;2022-11-20T03:38:34;8.77;;;5.90;;
12433;SDS011;6281;49.038;8.372;2022-11-20T03:41:02;7.83;;;5.87;;
12433;SDS011;6281;49.038;8.372;2022-11-20T03:43:30;8.97;;;5.47;;
12433;SDS011;6281;49.038;8.372;2022-11-20T03:45:58;7.03;;;5.70;;
12433;SDS011;6281;49.038;8.372;2022-11-20T03:48:27;8.83;;;6.20;;
12433;SDS011;6281;49.038;8.372;2022-11-20T03:51:06;7.07;;;6.13;;
12433;SDS011;6281;49.038;8.372;2022-11-20T03:53:34;7.93;;;5.77;;
12433;SDS011;6281;49.038;8.372;2022-11-20T03:56:01;8.67;;;4.80;;
12433;SDS011;6281;49.038;8.372;2022-11-20T03:58:28;6.17;;;4.70;;
12433;SDS011;6281;49.038;8.372;2022-11-20T04:00:55;8.60;;;5.93;;
12433;SDS011;6281;49.038;8.372;2022-11-20T04:03:22;8.03;;;5.03;;
12433;SDS011;6281;49.038;8.372;2022-11-20T04:05:50;8.47;;;5.97;;
12433;SDS011;6281;49.038;8.372;2022-11-20T04:08:17;7.63;;;5.13;;
12433;SDS011;6281;49.038;8.372;2022-11-20T04:10:44;11.83;;;5.80;;
12433;SDS011;6281;49.038;8.372;2022-11-20T04:13:11;11.33;;;5.83;;
12433;SDS011;6281;49.038;8.372;2022-11-20T04:15:37;7.80;;;4.87;;
12433;SDS011;6281;49.038;8.372;2022-11-20T04:18:04;6.47;;;4.77;;
12433;SDS011;6281;49.038;8.372;2022-11-20T04:20:31;7.90;;;4.60;;
12433;SDS011;6281;49.038;8.372;2022-11-20T04:23:01;6.87;;;4.87;;
12433;SDS011;6281;49.038;8.372;2022-11-20T04:25:28;8.70;;;5.43;;
12433;SDS011;6281;49.038;8.372;2022-11-20T04:27:54;6.30;;;4.90;;
12433;SDS011;6281;49.038;8.372;2022-11-20T04:30:21;5.33;;;3.43;;
12433;SDS011;6281;49.038;8.372;2022-11-20T04:32:48;6.70;;;4.93;;
12433;SDS011;6281;49.038;8.372;2022-11-20T04:35:15;6.70;;;4.70;;
12433;SDS011;6281;49.038;8.372;2022-11-20T04:37:42;6.63;;;5.00;;
12433;SDS011;6281;49.038;8.372;2022-11-20T04:40:11;6.70;;;4.43;;
12433;SDS011;6281;49.038;8.372;2022-11-20T04:42:38;5.40;;;4.30;;
12433;SDS011;6281;49.038;8.372;2022-11-20T04:45:05;4.30;;;3.90;;
12433;SDS011;6281;49.038;8.372;2022-11-20T04:47:33;5.87;;;4.30;;
12433;SDS011;6281;49.038;8.372;2022-11-20T04:50:00;6.50;;;4.33;;
12433;SDS011;6281;49.038;8.372;2022-11-20T04:52:27;6.17;;;4.67;;
12433;SDS011;6281;49.038;8.372;2022-11-20T04:54:53;6.50;;;4.57;;
12433;SDS011;6281;49.038;8.372;2022-11-20T04:57:22;6.27;;;4.47;;
12433;SDS011;6281;49.038;8.372;2022-11-20T04:59:49;6.97;;;4.57;;
12433;SDS011;6281;49.038;8.372;2022-11-20T05:02:16;5.10;;;4.07;;
12433;SDS011;6281;49.038;8.372;2022-11-20T05:04:43;6.87;;;3.83;;
12433;SDS011;6281;49.038;8.372;2022-11-20T05:07:10;5.70;;;3.80;;
12433;SDS011;6281;49.038;8.372;2022-11-20T05:09:37;6.33;;;4.30;;
12433;SDS011;6281;49.038;8.372;2022-11-20T05:12:06;6.03;;;4.60;;
12433;SDS011;6281;49.038;8.372;2022-11-20T05:14:35;5.17;;;4.23;;
12433;SDS011;6281;49.038;8.372;2022-11-20T05:17:02;5.30;;;4.23;;
12433;SDS011;6281;49.038;8.372;2022-11-20T05:19:28;6.33;;;4.70;;
12433;SDS011;6281;49.038;8.372;2022-11-20T05:21:55;5.53;;;4.30;;
12433;SDS011;6281;49.038;8.372;2022-11-20T05:24:22;6.40;;;5.20;;
12433;SDS011;6281;49.038;8.372;2022-11-20T05:26:49;7.33;;;4.80;;
12433;SDS011;6281;49.038;8.372;2022-11-20T05:29:16;7.37;;;4.37;;
12433;SDS011;6281;49.038;8.372;2022-11-20T05:31:44;5.33;;;4.03;;
12433;SDS011;6281;49.038;8.372;2022-11-20T05:34:11;6.97;;;4.47;;
12433;SDS011;6281;49.038;8.372;2022-11-20T05:36:38;7.70;;;4.63;;
12433;SDS011;6281;49.038;8.372;2022-11-20T05:39:05;5.93;;;4.07;;
12433;SDS011;6281;49.038;8.372;2022-11-20T05:41:32;6.47;;;4.80;;
12433;SDS011;6281;49.038;8.372;2022-11-20T05:43:59;6.90;;;4.10;;
12433;SDS011;6281;49.038;8.372;2022-11-20T05:46:26;6.30;;;4.33;;
12433;SDS011;6281;49.038;8.372;2022-11-20T05:48:55;5.90;;;4.87;;
12433;SDS011;6281;49.038;8.372;2022-11-20T05:51:22;4.37;;;3.20;;
12433;SDS011;6281;49.038;8.372;2022-11-20T05:53:50;7.27;;;4.50;;
12433;SDS011;6281;49.038;8.372;2022-11-20T05:56:18;5.87;;;3.67;;
12433;SDS011;6281;49.038;8.372;2022-11-20T05:58:46;5.23;;;4.07;;
12433;SDS011;6281;49.038;8.372;2022-11-20T06:01:14;4.90;;;4.20;;
12433;SDS011;6281;49.038;8.372;2022-11-20T06:03:43;4.00;;;3.27;;
12433;SDS011;6281;49.038;8.372;2022-11-20T06:06:13;6.83;;;4.43;;
12433;SDS011;6281;49.038;8.372;2022-11-20T06:08:41;6.17;;;4.00;;
12433;SDS011;6281;49.038;8.372;2022-11-20T06:11:09;4.97;;;4.43;;
12433;SDS011;6281;49.038;8.372;2022-11-20T06:13:47;7.67;;;4.20;;
12433;SDS011;6281;49.038;8.372;2022-11-20T06:16:15;6.47;;;4.20;;
12433;SDS011;6281;49.038;8.372;2022-11-20T06:18:43;3.07;;;2.40;;
12433;SDS011;6281;49.038;8.372;2022-11-20T06:21:12;4.37;;;3.60;;
12433;SDS011;6281;49.038;8.372;2022-11-20T06:23:42;4.97;;;3.93;;
12433;SDS011;6281;49.038;8.372;2022-11-20T06:26:10;4.90;;;3.60;;
12433;SDS011;6281;49.038;8.372;2022-11-20T06:28:39;5.33;;;3.97;;
12433;SDS011;6281;49.038;8.372;2022-11-20T06:31:06;4.73;;;3.93;;
12433;SDS011;6281;49.038;8.372;2022-11-20T06:33:33;4.30;;;2.90;;
12433;SDS011;6281;49.038;8.372;2022-11-20T06:36:00;4.20;;;3.20;;
12433;SDS011;6281;49.038;8.372;2022-11-20T06:38:29;3.67;;;3.17;;
12433;SDS011;6281;49.038;8.372;2022-11-20T06:40:56;5.13;;;3.20;;
12433;SDS011;6281;49.038;8.372;2022-11-20T06:43:24;5.13;;;3.20;;
12433;SDS011;6281;49.038;8.372;2022-11-20T06:45:51;6.13;;;2.97;;
12433;SDS011;6281;49.038;8.372;2022-11-20T06:48:19;3.93;;;3.50;;
12433;SDS011;6281;49.038;8.372;2022-11-20T06:50:46;4.10;;;3.17;;
12433;SDS011;6281;49.038;8.372;2022-11-20T06:53:13;6.33;;;3.80;;
12433;SDS011;6281;49.038;8.372;2022-11-20T06:55:43;5.40;;;2.90;;
12433;SDS011;6281;49.038;8.372;2022-11-20T06:58:10;5.80;;;3.47;;
12433;SDS011;6281;49.038;8.372;2022-11-20T07:00:37;3.53;;;1.57;;
12433;SDS011;6281;49.038;8.372;2022-11-20T07:03:04;3.00;;;2.43;;
12433;SDS011;6281;49.038;8.372;2022-11-20T07:05:32;3.10;;;2.80;;
12433;SDS011;6281;49.038;8.372;2022-11-20T07:07:59;5.10;;;2.60;;
12433;SDS011;6281;49.038;8.372;2022-11-20T07:10:26;3.27;;;2.63;;
12433;SDS011;6281;49.038;8.372;2022-11-20T07:12:54;4.93;;;2.57;;
12433;SDS011;6281;49.038;8.372;2022-11-20T07:15:22;4.50;;;3.63;;
12433;SDS011;6281;49.038;8.372;2022-11-20T07:17:50;4.07;;;3.07;;
12433;SDS011;6281;49.038;8.372;2022-11-20T07:20:17;4.67;;;2.80;;
12433;SDS011;6281;49.038;8.372;2022-11-20T07:22:44;3.00;;;1.93;;
12433;SDS011;6281;49.038;8.372;2022-11-20T07:25:11;5.10;;;2.90;;
12433;SDS011;6281;49.038;8.372;2022-11-20T07:27:38;3.07;;;2.43;;
12433;SDS011;6281;49.038;8.372;2022-11-20T07:30:07;4.07;;;2.83;;
12433;SDS011;6281;49.038;8.372;2022-11-20T07:32:34;2.77;;;2.40;;
12433;SDS011;6281;49.038;8.372;2022-11-20T07:35:01;3.97;;;2.93;;
12433;SDS011;6281;49.038;8.372;2022-11-20T07:37:27;4.33;;;3.10;;
12433;SDS011;6281;49.038;8.372;2022-11-20T07:39:54;4.43;;;3.13;;
12433;SDS011;6281;49.038;8.372;2022-11-20T07:42:21;5.27;;;3.13;;
12433;SDS011;6281;49.038;8.372;2022-11-20T07:44:48;5.40;;;3.10;;
12433;SDS011;6281;49.038;8.372;2022-11-20T07:47:16;5.73;;;3.00;;
12433;SDS011;6281;49.038;8.372;2022-11-20T07:49:43;4.93;;;3.17;;
12433;SDS011;6281;49.038;8.372;2022-11-20T07:52:10;4.00;;;3.50;;
12433;SDS011;6281;49.038;8.372;2022-11-20T07:54:37;4.13;;;2.87;;
12433;SDS011;6281;49.038;8.372;2022-11-20T07:57:04;5.30;;;3.63;;
12433;SDS011;6281;49.038;8.372;2022-11-20T07:59:31;4.23;;;3.47;;
12433;SDS011;6281;49.038;8.372;2022-11-20T08:01:58;5.13;;;3.13;;
12433;SDS011;6281;49.038;8.372;2022-11-20T08:04:26;6.53;;;3.90;;
12433;SDS011;6281;49.038;8.372;2022-11-20T08:06:53;5.57;;;4.17;;
12433;SDS011;6281;49.038;8.372;2022-11-20T08:09:20;4.97;;;4.20;;
12433;SDS011;6281;49.038;8.372;2022-11-20T08:11:47;4.67;;;2.77;;
12433;SDS011;6281;49.038;8.372;2022-11-20T08:14:31;7.37;;;3.90;;
12433;SDS011;6281;49.038;8.372;2022-11-20T08:16:58;5.00;;;3.70;;
12433;SDS011;6281;49.038;8.372;2022-11-20T08:19:26;5.73;;;3.97;;
12433;SDS011;6281;49.038;8.372;2022-11-20T08:21:54;3.77;;;3.27;;
12433;SDS011;6281;49.038;8.372;2022-11-20T08:24:21;7.57;;;4.93;;
12433;SDS011;6281;49.038;8.372;2022-11-20T08:26:56;9.13;;;4.80;;
12433;SDS011;6281;49.038;8.372;2022-11-20T08:29:23;5.07;;;3.53;;
12433;SDS011;6281;49.038;8.372;2022-11-20T08:31:50;5.43;;;3.60;;
12433;SDS011;6281;49.038;8.372;2022-11-20T08:34:17;7.17;;;4.60;;
12433;SDS011;6281;49.038;8.372;2022-11-20T08:36:46;6.60;;;4.50;;
12433;SDS011;6281;49.038;8.372;2022-11-20T08:39:13;4.80;;;3.63;;
12433;SDS011;6281;49.038;8.372;2022-11-20T08:41:40;6.47;;;4.17;;
12433;SDS011;6281;49.038;8.372;2022-11-20T08:44:07;6.90;;;4.63;;
12433;SDS011;6281;49.038;8.372;2022-11-20T08:46:37;8.20;;;4.53;;
12433;SDS011;6281;49.038;8.372;2022-11-20T08:49:06;7.63;;;4.60;;
12433;SDS011;6281;49.038;8.372;2022-11-20T08:51:34;4.73;;;3.67;;
12433;SDS011;6281;49.038;8.372;2022-11-20T08:54:03;6.27;;;4.77;;
12433;SDS011;6281;49.038;8.372;2022-11-20T08:56:31;5.20;;;3.87;;
12433;SDS011;6281;49.038;8.372;2022-11-20T08:58:58;8.57;;;4.83;;
12433;SDS011;6281;49.038;8.372;2022-11-20T09:01:25;5.93;;;4.40;;
12433;SDS011;6281;49.038;8.372;2022-11-20T09:03:56;4.03;;;2.87;;
12433;SDS011;6281;49.038;8.372;2022-11-20T09:06:24;5.90;;;3.90;;
12433;SDS011;6281;49.038;8.372;2022-11-20T09:08:51;5.43;;;4.27;;
12433;SDS011;6281;49.038;8.372;2022-11-20T09:11:20;4.97;;;4.27;;
12433;SDS011;6281;49.038;8.372;2022-11-20T09:13:47;7.87;;;4.73;;
12433;SDS011;6281;49.038;8.372;2022-11-20T09:16:14;6.53;;;4.27;;
12433;SDS011;6281;49.038;8.372;2022-11-20T09:18:41;4.53;;;3.30;;
12433;SDS011;6281;49.038;8.372;2022-11-20T09:21:09;5.93;;;4.20;;
12433;SDS011;6281;49.038;8.372;2022-11-20T09:23:38;5.63;;;4.13;;
12433;SDS011;6281;49.038;8.372;2022-11-20T09:26:07;4.63;;;3.90;;
12433;SDS011;6281;49.038;8.372;2022-11-20T09:28:37;4.90;;;2.93;;
12433;SDS011;6281;49.038;8.372;2022-11-20T09:31:04;6.43;;;4.33;;
12433;SDS011;6281;49.038;8.372;2022-11-20T09:33:32;4.50;;;3.63;;
12433;SDS011;6281;49.038;8.372;2022-11-20T09:35:59;4.63;;;3.53;;
12433;SDS011;6281;49.038;8.372;2022-11-20T09:38:26;4.40;;;3.10;;
12433;SDS011;6281;49.038;8.372;2022-11-20T09:40:54;5.27;;;3.93;;
12433;SDS011;6281;49.038;8.372;2022-11-20T09:43:27;5.00;;;2.80;;
12433;SDS011;6281;49.038;8.372;2022-11-20T09:46:07;4.83;;;3.60;;
12433;SDS011;6281;49.038;8.372;2022-11-20T09:48:42;6.03;;;4.30;;
12433;SDS011;6281;49.038;8.372;2022-11-20T09:51:29;5.83;;;4.13;;
12433;SDS011;6281;49.038;8.372;2022-11-20T09:54:06;6.60;;;4.23;;
12433;SDS011;6281;49.038;8.372;2022-11-20T09:56:41;6.33;;;4.30;;
12433;SDS011;6281;49.038;8.372;2022-11-20T09:59:14;5.77;;;3.37;;
12433;SDS011;6281;49.038;8.372;2022-11-20T10:01:53;6.27;;;4.53;;
12433;SDS011;6281;49.038;8.372;2022-11-20T10:04:21;6.97;;;4.27;;
12433;SDS011;6281;49.038;8.372;2022-11-20T10:06:50;5.17;;;3.87;;
12433;SDS011;6281;49.038;8.372;2022-11-20T10:09:24;5.87;;;3.87;;
12433;SDS011;6281;49.038;8.372;2022-11-20T10:11:59;5.00;;;4.10;;
12433;SDS011;6281;49.038;8.372;2022-11-20T10:14:43;5.30;;;4.00;;
12433;SDS011;6281;49.038;8.372;2022-11-20T10:17:22;8.27;;;5.80;;
12433;SDS011;6281;49.038;8.372;2022-11-20T10:20:09;7.37;;;5.53;;
12433;SDS011;6281;49.038;8.372;2022-11-20T10:22:46;8.30;;;6.10;;
12433;SDS011;6281;49.038;8.372;2022-11-20T10:25:21;6.07;;;5.17;;
12433;SDS011;6281;49.038;8.372;2022-11-20T10:28:20;7.57;;;5.90;;
12433;SDS011;6281;49.038;8.372;2022-11-20T10:30:56;7.03;;;5.20;;
12433;SDS011;6281;49.038;8.372;2022-11-20T10:33:31;9.83;;;5.47;;
12433;SDS011;6281;49.038;8.372;2022-11-20T10:36:05;6.90;;;5.07;;
12433;SDS011;6281;49.038;8.372;2022-11-20T10:38:40;7.13;;;5.17;;
12433;SDS011;6281;49.038;8.372;2022-11-20T10:41:12;5.83;;;4.67;;
12433;SDS011;6281;49.038;8.372;2022-11-20T10:43:53;5.40;;;4.07;;
12433;SDS011;6281;49.038;8.372;2022-11-20T10:46:31;5.57;;;4.20;;
12433;SDS011;6281;49.038;8.372;2022-11-20T10:49:09;6.97;;;3.87;;
12433;SDS011;6281;49.038;8.372;2022-11-20T10:51:40;4.73;;;3.63;;
12433;SDS011;6281;49.038;8.372;2022-11-20T10:54:19;8.17;;;3.97;;
12433;SDS011;6281;49.038;8.372;2022-11-20T10:56:56;5.43;;;3.87;;
12433;SDS011;6281;49.038;8.372;2022-11-20T10:59:41;3.70;;;3.40;;
12433;SDS011;6281;49.038;8.372;2022-11-20T11:02:22;4.33;;;3.27;;
12433;SDS011;6281;49.038;8.372;2022-11-20T11:04:52;5.10;;;2.50;;
12433;SDS011;6281;49.038;8.372;2022-11-20T11:07:21;5.53;;;2.83;;
12433;SDS011;6281;49.038;8.372;2022-11-20T11:09:52;7.10;;;3.07;;
12433;SDS011;6281;49.038;8.372;2022-11-20T11:12:21;5.90;;;2.70;;
12433;SDS011;6281;49.038;8.372;2022-11-20T11:14:51;6.63;;;2.80;;
12433;SDS011;6281;49.038;8.372;2022-11-20T11:17:20;8.40;;;3.27;;
12433;SDS011;6281;49.038;8.372;2022-11-20T11:19:59;5.27;;;2.73;;
12433;SDS011;6281;49.038;8.372;2022-11-20T11:22:29;4.27;;;2.43;;
12433;SDS011;6281;49.038;8.372;2022-11-20T11:24:57;3.07;;;1.70;;
12433;SDS011;6281;49.038;8.372;2022-11-20T11:27:25;4.47;;;2.50;;
12433;SDS011;6281;49.038;8.372;2022-11-20T11:30:01;3.73;;;2.20;;
12433;SDS011;6281;49.038;8.372;2022-11-20T11:32:39;3.40;;;2.10;;
12433;SDS011;6281;49.038;8.372;2022-11-20T11:35:18;2.37;;;1.93;;
12433;SDS011;6281;49.038;8.372;2022-11-20T11:37:47;2.40;;;1.73;;
12433;SDS011;6281;49.038;8.372;2022-11-20T11:40:16;3.30;;;1.90;;
12433;SDS011;6281;49.038;8.372;2022-11-20T11:42:46;3.87;;;2.20;;
12433;SDS011;6281;49.038;8.372;2022-11-20T11:45:19;3.70;;;2.20;;
12433;SDS011;6281;49.038;8.372;2022-11-20T11:47:46;4.13;;;1.90;;
12433;SDS011;6281;49.038;8.372;2022-11-20T11:50:19;2.63;;;1.70;;
12433;SDS011;6281;49.038;8.372;2022-11-20T11:52:50;4.07;;;1.47;;
12433;SDS011;6281;49.038;8.372;2022-11-20T11:55:25;2.13;;;1.40;;
12433;SDS011;6281;49.038;8.372;2022-11-20T11:57:58;3.17;;;1.60;;
12433;SDS011;6281;49.038;8.372;2022-11-20T12:00:33;3.67;;;1.60;;
12433;SDS011;6281;49.038;8.372;2022-11-20T12:03:05;2.30;;;1.43;;
12433;SDS011;6281;49.038;8.372;2022-11-20T12:05:40;2.87;;;1.50;;
12433;SDS011;6281;49.038;8.372;2022-11-20T12:08:12;5.40;;;1.63;;
12433;SDS011;6281;49.038;8.372;2022-11-20T12:10:45;3.33;;;1.40;;
12433;SDS011;6281;49.038;8.372;2022-11-20T12:13:20;4.10;;;1.30;;
12433;SDS011;6281;49.038;8.372;2022-11-20T12:15:56;1.87;;;1.23;;
12433;SDS011;6281;49.038;8.372;2022-11-20T12:18:24;4.43;;;1.50;;
12433;SDS011;6281;49.038;8.372;2022-11-20T12:20:56;2.57;;;1.73;;
12433;SDS011;6281;49.038;8.372;2022-11-20T12:23:35;3.37;;;1.33;;
12433;SDS011;6281;49.038;8.372;2022-11-20T12:26:13;7.47;;;1.80;;
12433;SDS011;6281;49.038;8.372;2022-11-20T12:28:47;2.07;;;1.20;;
12433;SDS011;6281;49.038;8.372;2022-11-20T12:31:35;3.83;;;1.23;;
12433;SDS011;6281;49.038;8.372;2022-11-20T12:34:27;3.33;;;1.13;;
12433;SDS011;6281;49.038;8.372;2022-11-20T12:37:16;1.77;;;0.90;;
12433;SDS011;6281;49.038;8.372;2022-11-20T12:39:50;2.90;;;1.30;;
12433;SDS011;6281;49.038;8.372;2022-11-20T12:42:23;2.77;;;1.10;;
12433;SDS011;6281;49.038;8.372;2022-11-20T12:45:20;2.30;;;1.17;;
12433;SDS011;6281;49.038;8.372;2022-11-20T12:51:05;5.37;;;1.03;;
12433;SDS011;6281;49.038;8.372;2022-11-20T12:53:46;4.83;;;0.83;;
12433;SDS011;6281;49.038;8.372;2022-11-20T12:56:24;3.30;;;1.20;;
12433;SDS011;6281;49.038;8.372;2022-11-20T12:59:06;5.17;;;1.03;;
12433;SDS011;6281;49.038;8.372;2022-11-20T13:01:47;1.87;;;1.00;;
12433;SDS011;6281;49.038;8.372;2022-11-20T13:04:23;1.70;;;0.90;;
12433;SDS011;6281;49.038;8.372;2022-11-20T13:07:04;1.97;;;1.00;;
12433;SDS011;6281;49.038;8.372;2022-11-20T13:09:36;1.17;;;0.77;;
12433;SDS011;6281;49.038;8.372;2022-11-20T13:12:08;3.07;;;1.50;;
12433;SDS011;6281;49.038;8.372;2022-11-20T13:14:41;3.77;;;0.83;;
12433;SDS011;6281;49.038;8.372;2022-11-20T13:17:16;0.90;;;0.80;;
12433;SDS011;6281;49.038;8.372;2022-11-20T13:19:48;1.60;;;1.00;;
12433;SDS011;6281;49.038;8.372;2022-11-20T13:22:23;2.43;;;0.90;;
12433;SDS011;6281;49.038;8.372;2022-11-20T13:24:53;2.43;;;0.80;;
12433;SDS011;6281;49.038;8.372;2022-11-20T13:27:20;2.90;;;1.30;;
12433;SDS011;6281;49.038;8.372;2022-11-20T13:30:02;3.77;;;1.00;;
12433;SDS011;6281;49.038;8.372;2022-11-20T13:32:52;3.17;;;1.13;;
12433;SDS011;6281;49.038;8.372;2022-11-20T13:35:27;4.37;;;1.10;;
12433;SDS011;6281;49.038;8.372;2022-11-20T13:38:02;4.00;;;1.20;;
12433;SDS011;6281;49.038;8.372;2022-11-20T13:40:35;1.63;;;1.00;;
12433;SDS011;6281;49.038;8.372;2022-11-20T13:43:08;2.53;;;1.00;;
12433;SDS011;6281;49.038;8.372;2022-11-20T13:45:42;1.47;;;0.70;;
12433;SDS011;6281;49.038;8.372;2022-11-20T13:48:20;1.70;;;0.57;;
12433;SDS011;6281;49.038;8.372;2022-11-20T13:50:53;1.43;;;0.80;;
12433;SDS011;6281;49.038;8.372;2022-11-20T13:53:31;3.47;;;1.07;;
12433;SDS011;6281;49.038;8.372;2022-11-20T13:56:17;1.40;;;0.70;;
12433;SDS011;6281;49.038;8.372;2022-11-20T13:58:52;2.03;;;0.87;;
12433;SDS011;6281;49.038;8.372;2022-11-20T14:01:29;1.20;;;0.97;;
12433;SDS011;6281;49.038;8.372;2022-11-20T14:03:57;4.03;;;1.07;;
12433;SDS011;6281;49.038;8.372;2022-11-20T14:06:25;3.90;;;0.97;;
12433;SDS011;6281;49.038;8.372;2022-11-20T14:08:54;1.60;;;0.73;;
12433;SDS011;6281;49.038;8.372;2022-11-20T14:11:24;2.07;;;0.97;;
12433;SDS011;6281;49.038;8.372;2022-11-20T14:13:56;2.20;;;0.80;;
12433;SDS011;6281;49.038;8.372;2022-11-20T14:16:25;3.37;;;0.90;;
12433;SDS011;6281;49.038;8.372;2022-11-20T14:18:54;2.63;;;1.00;;
12433;SDS011;6281;49.038;8.372;2022-11-20T14:21:26;2.60;;;1.00;;
12433;SDS011;6281;49.038;8.372;2022-11-20T14:24:02;3.10;;;1.00;;
12433;SDS011;6281;49.038;8.372;2022-11-20T14:26:32;3.40;;;0.90;;
12433;SDS011;6281;49.038;8.372;2022-11-20T14:29:00;2.13;;;0.73;;
12433;SDS011;6281;49.038;8.372;2022-11-20T14:31:27;1.97;;;0.90;;
12433;SDS011;6281;49.038;8.372;2022-11-20T14:33:55;2.43;;;1.00;;
12433;SDS011;6281;49.038;8.372;2022-11-20T14:36:23;2.97;;;0.90;;
12433;SDS011;6281;49.038;8.372;2022-11-20T14:38:51;2.17;;;0.90;;
12433;SDS011;6281;49.038;8.372;2022-11-20T14:41:19;3.17;;;1.37;;
12433;SDS011;6281;49.038;8.372;2022-11-20T14:43:50;1.87;;;1.00;;
12433;SDS011;6281;49.038;8.372;2022-11-20T14:46:20;1.83;;;0.80;;
12433;SDS011;6281;49.038;8.372;2022-11-20T14:48:49;1.90;;;1.20;;
12433;SDS011;6281;49.038;8.372;2022-11-20T14:51:26;3.10;;;1.40;;
12433;SDS011;6281;49.038;8.372;2022-11-20T14:53:56;6.37;;;1.70;;
12433;SDS011;6281;49.038;8.372;2022-11-20T14:56:34;3.00;;;1.40;;
12433;SDS011;6281;49.038;8.372;2022-11-20T14:59:03;1.87;;;1.23;;
12433;SDS011;6281;49.038;8.372;2022-11-20T15:01:30;2.80;;;1.40;;
12433;SDS011;6281;49.038;8.372;2022-11-20T15:03:59;2.40;;;0.97;;
12433;SDS011;6281;49.038;8.372;2022-11-20T15:06:28;2.43;;;1.40;;
12433;SDS011;6281;49.038;8.372;2022-11-20T15:08:56;3.40;;;1.30;;
12433;SDS011;6281;49.038;8.372;2022-11-20T15:11:27;3.80;;;1.27;;
12433;SDS011;6281;49.038;8.372;2022-11-20T15:13:56;2.40;;;1.17;;
12433;SDS011;6281;49.038;8.372;2022-11-20T15:16:25;1.27;;;1.07;;
12433;SDS011;6281;49.038;8.372;2022-11-20T15:18:53;3.03;;;1.40;;